Time;durP1;ratioP1;P1;durP2;ratioP2;P2;SDS_P1;SDS_P2;PMS_P1;PMS_P2;Temp;Humidity;BMP_temperature;BMP_pressure;BME280_temperature;BME280_humidity;BME280_pressure;Samples;Min_cycle;Max_cycle;Signal;HPM_P1;HPM_P2
2023/04/20 00:02:22;;;;;;;2.90;1.67;;;;;;;8.10;100.00;102382.25;10243767;28;20047;-75
2023/04/20 00:07:23;;;;;;;2.95;1.58;;;;;;;8.11;100.00;102374.88;10242840;28;20566;-76
2023/04/20 00:12:24;;;;;;;3.53;1.58;;;;;;;8.08;100.00;102365.13;10243484;28;20062;-76
2023/04/20 00:17:24;;;;;;;3.47;1.70;;;;;;;8.12;100.00;102362.84;10236541;28;20043;-76
2023/04/20 00:22:27;;;;;;;4.13;1.92;;;;;;;8.10;100.00;102360.28;10233785;28;20058;-77
2023/04/20 00:27:27;;;;;;;4.88;1.50;;;;;;;8.15;100.00;102351.47;10233136;28;20035;-76
2023/04/20 00:32:29;;;;;;;4.40;1.52;;;;;;;8.07;100.00;102334.13;10218932;28;20073;-76
2023/04/20 00:37:29;;;;;;;8.25;2.00;;;;;;;7.98;100.00;102324.38;10186345;29;20036;-76
2023/04/20 00:42:30;;;;;;;6.65;1.83;;;;;;;8.00;100.00;102315.91;10171237;29;20044;-76
2023/04/20 00:47:30;;;;;;;3.22;1.42;;;;;;;8.03;100.00;102313.63;10170567;29;20070;-76
2023/04/20 00:52:31;;;;;;;10.77;3.40;;;;;;;7.93;100.00;102293.94;10178037;29;20036;-77
2023/04/20 00:57:31;;;;;;;4.30;1.80;;;;;;;8.04;100.00;102300.75;10178492;29;20042;-75
2023/04/20 01:02:32;;;;;;;4.72;1.70;;;;;;;8.08;100.00;102302.03;10190850;29;20458;-76
2023/04/20 01:07:32;;;;;;;3.90;1.77;;;;;;;8.08;100.00;102293.81;10170402;29;20066;-76
2023/04/20 01:12:33;;;;;;;5.57;1.73;;;;;;;7.93;100.00;102266.53;10202474;29;20044;-76
2023/04/20 01:17:36;;;;;;;4.05;1.80;;;;;;;8.00;100.00;102264.69;10187195;29;20060;-76
2023/04/20 01:22:45;;;;;;;6.35;1.73;;;;;;;7.98;100.00;102263.16;10168627;29;20044;-76
2023/04/20 01:27:45;;;;;;;3.95;1.58;;;;;;;7.92;100.00;102242.03;10154653;29;20040;-76
2023/04/20 01:32:46;;;;;;;5.10;1.30;;;;;;;7.90;100.00;102236.78;10171937;29;20048;-78
2023/04/20 01:37:46;;;;;;;7.32;1.75;;;;;;;7.87;100.00;102229.81;10169704;29;20036;-78
2023/04/20 01:42:47;;;;;;;3.42;1.40;;;;;;;7.77;100.00;102212.88;10171464;29;20060;-75
2023/04/20 01:47:47;;;;;;;8.65;1.88;;;;;;;7.61;100.00;102210.47;10152622;29;20036;-76
2023/04/20 01:52:48;;;;;;;10.43;2.85;;;;;;;7.51;100.00;102213.56;10153148;29;20036;-76
2023/04/20 01:57:48;;;;;;;4.82;2.95;;;;;;;7.39;100.00;102213.28;10153141;29;20051;-77
2023/04/20 02:02:49;;;;;;;3.58;1.80;;;;;;;7.36;100.00;102221.03;10153417;29;20045;-77
2023/04/20 02:07:50;;;;;;;3.47;2.17;;;;;;;7.29;100.00;102196.34;10183999;29;20044;-76
2023/04/20 02:12:50;;;;;;;5.63;1.55;;;;;;;7.41;100.00;102189.25;10136819;29;20036;-76
2023/04/20 02:17:51;;;;;;;11.02;2.38;;;;;;;7.52;100.00;102192.50;10137210;29;20033;-76
2023/04/20 02:22:51;;;;;;;3.55;1.60;;;;;;;7.52;100.00;102187.84;10168005;29;20036;-77
2023/04/20 02:27:52;;;;;;;11.05;2.72;;;;;;;7.45;100.00;102160.41;10170958;29;20119;-79
2023/04/20 02:32:52;;;;;;;6.18;1.88;;;;;;;7.41;100.00;102139.94;10161916;29;20039;-81
2023/04/20 02:37:53;;;;;;;4.70;1.42;;;;;;;7.63;100.00;102150.81;10194369;29;20036;-77
2023/04/20 02:42:53;;;;;;;6.47;1.42;;;;;;;7.58;100.00;102123.16;10174826;29;20484;-73
2023/04/20 02:47:54;;;;;;;4.95;1.85;;;;;;;7.76;100.00;102147.28;10171572;29;20092;-78
2023/04/20 02:52:55;;;;;;;3.70;1.77;;;;;;;7.67;100.00;102120.06;10177241;29;20032;-78
2023/04/20 02:57:55;;;;;;;3.60;1.55;;;;;;;7.77;100.00;102122.41;10129914;29;20055;-78
2023/04/20 03:02:55;;;;;;;3.60;1.73;;;;;;;7.80;100.00;102119.25;10177514;29;20039;-78
2023/04/20 03:07:56;;;;;;;4.38;2.13;;;;;;;7.70;100.00;102116.06;10177004;29;20043;-77
2023/04/20 03:12:56;;;;;;;2.97;1.40;;;;;;;7.75;100.00;102109.94;10129956;29;20068;-79
2023/04/20 03:17:57;;;;;;;3.20;1.50;;;;;;;7.68;100.00;102112.66;10177680;29;20044;-79
2023/04/20 03:22:57;;;;;;;4.82;1.52;;;;;;;7.65;100.00;102086.53;10157502;29;20047;-78
2023/04/20 03:27:58;;;;;;;5.40;1.92;;;;;;;7.55;100.00;102079.75;10198929;29;20071;-76
2023/04/20 03:32:58;;;;;;;2.20;1.17;;;;;;;7.68;100.00;102102.53;10216514;29;20039;-79
2023/04/20 03:38:00;;;;;;;2.45;1.58;;;;;;;7.74;100.00;102097.31;10220459;28;20086;-76
2023/04/20 03:43:00;;;;;;;6.38;1.60;;;;;;;7.73;100.00;102112.03;10237506;28;20035;-77
2023/04/20 03:48:01;;;;;;;2.80;1.42;;;;;;;7.68;100.00;102104.44;10205067;29;20150;-75
2023/04/20 03:53:01;;;;;;;5.75;1.70;;;;;;;7.61;100.00;102109.06;10236687;29;20415;-78
2023/04/20 03:58:02;;;;;;;3.47;1.40;;;;;;;7.56;100.00;102106.91;10205791;29;20039;-76
2023/04/20 04:03:03;;;;;;;4.78;3.15;;;;;;;7.50;100.00;102085.81;10205007;29;20031;-78
2023/04/20 04:08:03;;;;;;;3.38;1.40;;;;;;;7.53;100.00;102096.38;10237173;29;20306;-76
2023/04/20 04:13:04;;;;;;;7.25;1.33;;;;;;;7.53;100.00;102079.09;10213820;29;20044;-77
2023/04/20 04:18:05;;;;;;;5.63;1.73;;;;;;;7.35;100.00;102088.69;10258044;28;20502;-77
2023/04/20 04:23:05;;;;;;;6.55;1.70;;;;;;;7.15;100.00;102099.56;10259444;28;20035;-78
2023/04/20 04:28:06;;;;;;;7.22;2.25;;;;;;;7.22;100.00;102094.97;10254547;28;20035;-76
2023/04/20 04:33:09;;;;;;;6.13;3.67;;;;;;;7.12;100.00;102094.47;10258604;28;20082;-75
2023/04/20 04:38:11;;;;;;;5.47;1.70;;;;;;;7.01;100.00;102097.78;10275038;28;20062;-76
2023/04/20 04:43:12;;;;;;;8.20;1.92;;;;;;;6.93;100.00;102078.78;10194762;28;20032;-75
2023/04/20 04:48:12;;;;;;;7.65;2.20;;;;;;;6.94;100.00;102102.34;10178197;28;20130;-76
2023/04/20 04:53:13;;;;;;;3.40;2.05;;;;;;;6.87;100.00;102110.53;10210469;28;20031;-76
2023/04/20 04:58:14;;;;;;;3.38;1.67;;;;;;;6.71;100.00;102105.34;10207762;28;20047;-77
2023/04/20 05:03:15;;;;;;;3.45;2.10;;;;;;;6.71;100.00;102132.72;10255678;28;20049;-77
2023/04/20 05:08:15;;;;;;;2.60;1.27;;;;;;;6.56;100.00;102119.97;10257448;28;20030;-76
2023/04/20 05:13:16;;;;;;;4.43;2.13;;;;;;;6.58;100.00;102117.88;10225299;28;20035;-76
2023/04/20 05:18:16;;;;;;;5.80;1.83;;;;;;;6.62;100.00;102127.38;10240758;28;20446;-76
2023/04/20 05:23:16;;;;;;;5.13;2.15;;;;;;;6.56;100.00;102113.66;10225501;28;20089;-76
2023/04/20 05:28:17;;;;;;;4.30;1.90;;;;;;;6.57;100.00;102115.34;10256808;28;20047;-76
2023/04/20 05:33:18;;;;;;;5.85;2.15;;;;;;;6.57;100.00;102124.38;10289832;28;20023;-76
2023/04/20 05:38:18;;;;;;;3.95;2.10;;;;;;;6.55;100.00;102115.56;10249345;28;20074;-76
2023/04/20 05:43:19;;;;;;;3.35;1.90;;;;;;;6.58;100.00;102119.78;10194662;28;20063;-77
2023/04/20 05:48:20;;;;;;;6.75;1.80;;;;;;;6.56;100.00;102111.75;10216285;28;20044;-77
2023/04/20 05:53:20;;;;;;;3.63;1.70;;;;;;;6.67;100.00;102144.03;10192423;28;20587;-76
2023/04/20 05:58:21;;;;;;;3.40;2.00;;;;;;;6.60;100.00;102139.59;10180818;28;20047;-77
2023/04/20 06:03:22;;;;;;;6.85;2.42;;;;;;;6.65;100.00;102129.72;10176902;28;20050;-76
2023/04/20 06:08:22;;;;;;;3.50;2.15;;;;;;;6.65;100.00;102137.91;10209112;28;20047;-76
2023/04/20 06:13:23;;;;;;;4.53;2.28;;;;;;;6.60;100.00;102134.94;10208163;28;20047;-76
2023/04/20 06:18:23;;;;;;;3.95;2.05;;;;;;;6.53;100.00;102114.03;10206379;28;20044;-77
2023/04/20 06:23:24;;;;;;;4.97;2.35;;;;;;;6.58;100.00;102145.25;10191217;28;20036;-76
2023/04/20 06:28:25;;;;;;;6.78;2.30;;;;;;;6.41;100.00;102133.72;10207922;28;20044;-76
2023/04/20 06:33:25;;;;;;;6.47;2.30;;;;;;;6.44;100.00;102146.16;10176691;28;20027;-76
2023/04/20 06:38:26;;;;;;;9.20;3.13;;;;;;;6.37;100.00;102153.47;10138140;29;20048;-76
2023/04/20 06:43:26;;;;;;;8.20;2.83;;;;;;;6.28;100.00;102146.41;10168016;29;20036;-73
2023/04/20 06:48:27;;;;;;;6.80;3.40;;;;;;;6.25;100.00;102164.06;10168766;29;20043;-77
2023/04/20 06:53:27;;;;;;;8.18;3.63;;;;;;;6.18;100.00;102158.53;10167670;29;20040;-76
2023/04/20 06:58:28;;;;;;;6.20;2.80;;;;;;;6.16;100.00;102165.22;10151797;29;20491;-76
2023/04/20 07:03:28;;;;;;;6.25;2.70;;;;;;;6.10;100.00;102155.03;10151898;29;20036;-77
2023/04/20 07:08:29;;;;;;;4.93;3.00;;;;;;;6.02;100.00;102147.84;10137487;29;20047;-76
2023/04/20 07:13:30;;;;;;;5.90;3.13;;;;;;;6.11;100.00;102149.41;10179822;29;20051;-77
2023/04/20 07:18:30;;;;;;;5.38;3.15;;;;;;;6.25;100.00;102131.25;10150461;29;20544;-78
2023/04/20 07:23:31;;;;;;;6.55;3.60;;;;;;;6.40;100.00;102136.66;10197729;29;20073;-75
2023/04/20 07:28:32;;;;;;;6.32;3.72;;;;;;;6.52;100.00;102147.94;10183103;29;20790;-77
2023/04/20 07:33:34;;;;;;;4.40;2.70;;;;;;;6.36;100.00;102110.72;10159884;29;20036;-76
2023/04/20 07:38:35;;;;;;;4.00;2.85;;;;;;;6.47;100.00;102129.38;10191006;28;20050;-76
2023/04/20 07:43:36;;;;;;;6.72;3.00;;;;;;;6.70;100.00;102141.97;10211258;28;20054;-77
2023/04/20 07:48:36;;;;;;;5.97;2.90;;;;;;;6.81;100.00;102125.84;10205482;28;20046;-77
2023/04/20 07:53:37;;;;;;;5.45;3.53;;;;;;;6.97;100.00;102110.19;10226606;28;20051;-77
2023/04/20 07:58:39;;;;;;;14.18;4.57;;;;;;;7.27;100.00;102127.22;10197046;28;20067;-76
2023/04/20 08:03:40;;;;;;;4.63;2.92;;;;;;;7.53;100.00;102122.94;10230972;28;20103;-77
2023/04/20 08:08:40;;;;;;;7.18;3.10;;;;;;;7.53;100.00;102110.09;10199113;28;20054;-78
2023/04/20 08:13:41;;;;;;;5.53;2.67;;;;;;;7.38;100.00;102082.81;10199224;28;20040;-77
2023/04/20 08:18:41;;;;;;;6.45;3.72;;;;;;;7.74;100.00;102114.59;10231043;28;20043;-73
2023/04/20 08:23:42;;;;;;;5.55;3.67;;;;;;;7.94;100.00;102127.50;10239068;28;20039;-78
2023/04/20 08:28:43;;;;;;;8.57;4.15;;;;;;;7.72;100.00;102122.19;10196899;28;20103;-77
2023/04/20 08:33:44;;;;;;;6.00;3.35;;;;;;;7.65;100.00;102110.34;10199007;28;20352;-77
2023/04/20 08:38:45;;;;;;;9.82;3.85;;;;;;;7.72;100.00;102108.47;10258001;28;20042;-78
2023/04/20 08:43:47;;;;;;;6.47;3.80;;;;;;;7.83;100.00;102102.41;10210556;28;20420;-79
2023/04/20 08:48:47;;;;;;;8.82;4.10;;;;;;;8.01;100.00;102109.19;10283295;28;20046;-78
2023/04/20 08:53:48;;;;;;;9.57;3.78;;;;;;;8.08;100.00;102066.16;10241269;28;20073;-77
2023/04/20 08:58:48;;;;;;;7.15;3.22;;;;;;;8.64;100.00;102090.53;10240401;28;20050;-77
2023/04/20 09:03:49;;;;;;;7.35;3.35;;;;;;;8.78;100.00;102101.47;10241262;28;20031;-77
2023/04/20 09:08:49;;;;;;;5.72;3.67;;;;;;;8.83;100.00;102101.72;10257935;28;21529;-78
2023/04/20 09:14:19;;;;;;;10.63;4.05;;;;;;;8.63;100.00;102121.75;10227221;28;20063;-78
2023/04/20 09:19:24;;;;;;;8.32;3.75;;;;;;;8.27;100.00;102114.75;10237830;28;20039;-77
2023/04/20 09:24:31;;;;;;;8.45;3.92;;;;;;;8.18;100.00;102099.50;10256343;28;20109;-78
2023/04/20 09:29:32;;;;;;;6.78;3.92;;;;;;;8.52;100.00;102143.53;10235210;28;20166;-78
2023/04/20 09:34:43;;;;;;;7.65;3.45;;;;;;;8.22;100.00;102127.38;10239962;28;20109;-77
2023/04/20 09:39:44;;;;;;;8.38;3.45;;;;;;;7.94;100.00;102111.06;10238280;28;20058;-78
2023/04/20 09:44:45;;;;;;;6.40;3.83;;;;;;;7.97;100.00;102132.59;10235573;28;20031;-77
2023/04/20 09:49:46;;;;;;;7.35;4.40;;;;;;;8.02;100.00;102100.78;10253632;28;20085;-77
2023/04/20 09:54:47;;;;;;;6.20;3.65;;;;;;;8.06;100.00;102123.13;10272543;28;20034;-81
2023/04/20 09:59:47;;;;;;;6.10;3.85;;;;;;;7.92;100.00;102096.72;10256496;28;20063;-77
2023/04/20 10:04:54;;;;;;;6.55;4.03;;;;;;;8.00;100.00;102113.84;10256370;28;20031;-77
2023/04/20 10:10:08;;;;;;;7.95;3.63;;;;;;;8.09;100.00;102122.72;10255122;28;20047;-77
2023/04/20 10:15:09;;;;;;;7.57;4.93;;;;;;;8.34;100.00;102119.41;10253842;28;20101;-78
2023/04/20 10:20:26;;;;;;;8.95;3.97;;;;;;;8.50;100.00;102113.53;10239526;28;20098;-76
2023/04/20 10:25:26;;;;;;;7.75;4.07;;;;;;;8.56;100.00;102117.31;10240857;28;20405;-76
2023/04/20 10:30:27;;;;;;;8.07;4.22;;;;;;;8.45;100.00;102105.06;10255445;28;20043;-77
2023/04/20 10:35:28;;;;;;;7.82;4.57;;;;;;;8.56;100.00;102101.72;10260196;28;20101;-75
2023/04/20 10:40:30;;;;;;;7.15;4.18;;;;;;;8.90;100.00;102116.25;10238477;28;20052;-75
2023/04/20 10:45:35;;;;;;;9.30;4.57;;;;;;;8.60;100.00;102097.50;10215495;28;20048;-75
2023/04/20 10:50:36;;;;;;;7.93;5.10;;;;;;;8.33;100.00;102096.59;10204933;28;20050;-74
2023/04/20 10:55:36;;;;;;;10.15;5.20;;;;;;;8.55;100.00;102105.50;10255209;28;20050;-74
2023/04/20 11:00:37;;;;;;;12.43;5.50;;;;;;;8.68;100.00;102110.13;10263713;28;20054;-73
2023/04/20 11:05:37;;;;;;;8.85;5.47;;;;;;;8.67;100.00;102097.47;10252003;28;20038;-73
2023/04/20 11:10:41;;;;;;;10.68;6.05;;;;;;;8.48;100.00;102088.19;10263248;28;20102;-74
2023/04/20 11:15:42;;;;;;;9.65;5.20;;;;;;;8.60;100.00;102097.50;10204725;28;20039;-74
2023/04/20 11:20:53;;;;;;;7.68;5.40;;;;;;;8.68;100.00;102094.53;10225794;28;20628;-71
2023/04/20 11:25:54;;;;;;;10.77;6.68;;;;;;;8.97;100.00;102100.63;10235087;28;20035;-74
2023/04/20 11:30:56;;;;;;;14.30;6.43;;;;;;;8.94;100.00;102081.81;10260376;28;20140;-74
2023/04/20 11:35:57;;;;;;;9.98;5.90;;;;;;;9.16;100.00;102095.31;10289973;28;20039;-74
2023/04/20 11:41:03;;;;;;;11.13;6.85;;;;;;;9.27;100.00;102070.75;10261207;28;20462;-74
2023/04/20 11:46:13;;;;;;;11.52;7.60;;;;;;;9.47;100.00;102059.69;10241382;28;20043;-74
2023/04/20 11:51:13;;;;;;;11.52;6.80;;;;;;;9.74;100.00;102053.22;10291505;28;20042;-73
2023/04/20 11:56:14;;;;;;;12.95;7.18;;;;;;;11.00;100.00;102054.16;10244742;28;20050;-74
2023/04/20 12:01:15;;;;;;;12.23;6.65;;;;;;;12.02;100.00;102042.47;10242017;28;20062;-74
2023/04/20 12:06:16;;;;;;;9.05;6.05;;;;;;;12.75;100.00;102032.13;10260249;28;20054;-77
2023/04/20 12:11:16;;;;;;;9.32;5.60;;;;;;;13.71;100.00;102038.09;10227820;28;20038;-73
2023/04/20 12:16:17;;;;;;;7.30;5.57;;;;;;;13.89;100.00;102023.19;10259972;28;20039;-73
2023/04/20 12:21:17;;;;;;;9.27;5.20;;;;;;;13.62;100.00;102025.72;10271062;28;20129;-74
2023/04/20 12:26:18;;;;;;;10.38;5.43;;;;;;;12.88;100.00;102034.66;10226587;28;20034;-74
2023/04/20 12:31:18;;;;;;;9.15;5.63;;;;;;;12.94;100.00;102033.69;10249512;28;20117;-74
2023/04/20 12:36:19;;;;;;;8.60;5.22;;;;;;;13.20;100.00;101993.59;10241788;28;20034;-74
2023/04/20 12:41:21;;;;;;;8.20;5.03;;;;;;;14.45;100.00;101965.13;10240694;28;20115;-74
2023/04/20 12:46:22;;;;;;;7.47;4.28;;;;;;;15.29;100.00;102002.91;10269333;28;20106;-75
2023/04/20 12:51:22;;;;;;;6.63;5.30;;;;;;;14.99;100.00;102015.31;10274531;28;20031;-74
2023/04/20 12:56:23;;;;;;;6.40;5.15;;;;;;;15.49;100.00;102014.25;10243104;28;20066;-74
2023/04/20 13:01:23;;;;;;;9.95;5.32;;;;;;;16.27;100.00;101986.19;10257464;28;20387;-73
2023/04/20 13:06:24;;;;;;;6.45;4.97;;;;;;;15.86;100.00;101969.16;10274826;28;20172;-73
2023/04/20 13:11:24;;;;;;;9.30;5.07;;;;;;;14.92;100.00;101992.44;10246103;28;20046;-74
2023/04/20 13:16:25;;;;;;;7.57;4.78;;;;;;;14.54;100.00;101970.00;10233206;28;20035;-75
2023/04/20 13:21:26;;;;;;;6.68;4.97;;;;;;;14.88;100.00;101974.66;10232993;28;20085;-73
2023/04/20 13:26:26;;;;;;;7.18;5.20;;;;;;;16.41;99.81;101957.94;10280066;28;20050;-74
2023/04/20 13:31:27;;;;;;;8.80;6.03;;;;;;;15.90;97.68;101961.16;10254391;28;20035;-73
2023/04/20 13:36:28;;;;;;;8.40;6.57;;;;;;;16.08;98.33;101957.97;10256009;28;20606;-73
2023/04/20 13:41:28;;;;;;;8.02;5.28;;;;;;;15.85;96.87;101934.16;10254017;28;20483;-74
2023/04/20 13:46:29;;;;;;;9.52;6.03;;;;;;;16.70;97.12;101938.91;10269134;28;20047;-74
2023/04/20 13:51:29;;;;;;;9.55;5.30;;;;;;;16.81;90.62;101901.75;10254651;28;20296;-73
2023/04/20 13:56:31;;;;;;;9.32;5.53;;;;;;;16.53;89.65;101911.31;10271734;28;20061;-74
2023/04/20 14:01:32;;;;;;;8.00;5.03;;;;;;;17.25;87.19;101879.09;10267320;28;20054;-74
2023/04/20 14:06:32;;;;;;;8.90;5.38;;;;;;;17.83;84.78;101903.97;10253637;28;20403;-73
2023/04/20 14:11:33;;;;;;;7.03;5.18;;;;;;;17.95;87.98;101909.28;10271121;28;20094;-73
2023/04/20 14:16:41;;;;;;;6.78;4.82;;;;;;;18.62;80.35;101878.47;10203534;28;20086;-74
2023/04/20 14:21:46;;;;;;;10.00;5.55;;;;;;;16.41;82.62;101899.56;10232376;28;20069;-74
2023/04/20 14:26:46;;;;;;;7.97;5.78;;;;;;;14.95;86.55;101899.63;10254594;28;20031;-74
2023/04/20 14:31:47;;;;;;;8.23;5.97;;;;;;;14.19;93.38;101925.97;10239603;28;20035;-73
2023/04/20 14:36:48;;;;;;;9.02;5.40;;;;;;;14.24;94.88;101922.44;10223887;28;20043;-76
2023/04/20 14:41:48;;;;;;;7.82;5.05;;;;;;;14.67;94.84;101920.88;10238715;28;20130;-74
2023/04/20 14:46:49;;;;;;;8.18;4.78;;;;;;;14.57;92.61;101915.19;10224170;28;20429;-74
2023/04/20 14:51:49;;;;;;;7.38;5.00;;;;;;;14.27;93.18;101899.78;10207504;28;20040;-73
2023/04/20 14:56:50;;;;;;;7.43;4.90;;;;;;;14.60;92.07;101879.50;10222668;28;20487;-73
2023/04/20 15:01:51;;;;;;;6.80;5.03;;;;;;;15.68;89.70;101855.69;10238924;28;20274;-74
2023/04/20 15:06:51;;;;;;;8.75;5.22;;;;;;;16.90;85.20;101854.78;10222680;28;20042;-75
2023/04/20 15:11:52;;;;;;;8.05;5.10;;;;;;;16.92;86.41;101866.47;10254827;28;20051;-74
2023/04/20 15:16:52;;;;;;;7.75;5.45;;;;;;;15.69;90.14;101862.94;10236598;28;20099;-73
2023/04/20 15:21:53;;;;;;;6.18;4.72;;;;;;;15.40;88.34;101859.59;10238376;28;20043;-75
2023/04/20 15:26:53;;;;;;;9.07;5.15;;;;;;;14.93;88.79;101852.72;10221805;28;20031;-74
2023/04/20 15:31:54;;;;;;;10.25;5.63;;;;;;;14.94;89.58;101859.94;10221504;28;20035;-73
2023/04/20 15:36:55;;;;;;;10.23;5.68;;;;;;;15.21;90.87;101856.34;10237756;28;20131;-74
2023/04/20 15:41:56;;;;;;;7.80;5.72;;;;;;;15.75;91.08;101856.34;10236908;28;20559;-73
2023/04/20 15:46:57;;;;;;;7.32;5.85;;;;;;;16.93;87.64;101845.91;10269542;28;20055;-74
2023/04/20 15:51:57;;;;;;;6.45;5.28;;;;;;;16.74;87.30;101854.72;10235464;28;20054;-74
2023/04/20 15:56:58;;;;;;;13.68;5.63;;;;;;;15.89;88.80;101838.09;10235502;28;20035;-76
2023/04/20 16:01:58;;;;;;;7.80;5.88;;;;;;;17.06;86.54;101834.25;10235026;28;20050;-75
2023/04/20 16:06:59;;;;;;;5.97;5.03;;;;;;;17.78;83.38;101822.31;10271040;28;20058;-72
2023/04/20 16:12:01;;;;;;;6.97;5.38;;;;;;;17.25;83.80;101795.59;10259817;28;20054;-71
2023/04/20 16:17:02;;;;;;;6.22;4.93;;;;;;;16.12;84.99;101841.59;10292107;28;20078;-73
2023/04/20 16:22:02;;;;;;;9.63;5.97;;;;;;;15.79;89.30;101854.69;10242894;28;20046;-74
2023/04/20 16:27:03;;;;;;;7.20;5.80;;;;;;;17.03;89.71;101865.41;10241771;28;20046;-73
2023/04/20 16:32:03;;;;;;;9.48;5.60;;;;;;;17.57;84.44;101840.97;10242280;28;20050;-74
2023/04/20 16:37:04;;;;;;;7.85;5.15;;;;;;;15.57;89.22;101848.38;10227513;28;20090;-73
2023/04/20 16:42:04;;;;;;;9.07;5.53;;;;;;;13.84;95.46;101859.78;10238572;28;20051;-73
2023/04/20 16:47:05;;;;;;;10.35;5.93;;;;;;;12.62;100.00;101898.66;10262977;28;20066;-74
2023/04/20 16:52:06;;;;;;;7.85;4.97;;;;;;;11.93;100.00;101908.66;10281668;28;20051;-72
2023/04/20 16:57:06;;;;;;;8.10;5.70;;;;;;;11.51;100.00;101896.56;10254347;28;20042;-69
2023/04/20 17:02:07;;;;;;;8.50;5.32;;;;;;;11.39;100.00;101928.78;10216602;28;20122;-72
2023/04/20 17:07:07;;;;;;;9.52;6.05;;;;;;;11.06;100.00;101916.28;10272342;28;20035;-72
2023/04/20 17:12:08;;;;;;;11.43;6.18;;;;;;;10.77;100.00;101930.81;10241208;28;20039;-72
2023/04/20 17:17:08;;;;;;;8.23;5.88;;;;;;;10.50;100.00;101920.97;10273230;28;20089;-72
2023/04/20 17:22:09;;;;;;;10.80;6.55;;;;;;;10.19;100.00;101935.66;10255406;28;20039;-72
2023/04/20 17:27:09;;;;;;;8.13;6.78;;;;;;;9.98;100.00;101928.63;10255896;28;20095;-72
2023/04/20 17:32:10;;;;;;;11.60;6.97;;;;;;;9.79;100.00;101924.13;10265981;28;20042;-70
2023/04/20 17:37:11;;;;;;;11.75;7.47;;;;;;;9.69;100.00;101941.13;10249020;28;20146;-73
2023/04/20 17:42:12;;;;;;;12.88;8.32;;;;;;;9.70;100.00;101948.31;10287681;28;20039;-73
2023/04/20 17:47:13;;;;;;;12.27;8.93;;;;;;;9.54;100.00;101954.34;10255917;28;20039;-73
2023/04/20 17:52:18;;;;;;;14.10;8.82;;;;;;;9.44;100.00;101952.91;10239244;28;20035;-72
2023/04/20 17:57:18;;;;;;;16.23;8.73;;;;;;;9.41;100.00;101955.28;10254650;28;20045;-74
2023/04/20 18:02:19;;;;;;;14.65;9.93;;;;;;;9.27;100.00;101963.56;10223968;28;20388;-73
2023/04/20 18:07:20;;;;;;;16.58;11.07;;;;;;;9.19;100.00;101963.00;10272833;28;20034;-73
2023/04/20 18:12:20;;;;;;;18.65;10.55;;;;;;;8.77;100.00;101946.03;10221213;28;20042;-74
2023/04/20 18:17:21;;;;;;;19.25;11.60;;;;;;;8.77;100.00;101966.09;10221537;28;20030;-75
2023/04/20 18:22:23;;;;;;;19.73;12.05;;;;;;;8.73;100.00;101991.47;10247985;28;20102;-71
2023/04/20 18:27:23;;;;;;;18.63;11.13;;;;;;;8.70;100.00;101987.22;10254914;28;20085;-70
2023/04/20 18:32:25;;;;;;;18.05;12.52;;;;;;;8.57;100.00;101985.34;10222947;28;20038;-74
2023/04/20 18:37:25;;;;;;;16.60;12.50;;;;;;;8.63;100.00;101995.47;10253868;28;20055;-74
2023/04/20 18:42:26;;;;;;;18.48;12.30;;;;;;;8.05;100.00;101896.53;10209713;28;20046;-74
2023/04/20 18:47:28;;;;;;;17.05;12.20;;;;;;;8.61;100.00;101981.13;10270897;28;20059;-73
2023/04/20 18:52:31;;;;;;;19.48;13.10;;;;;;;8.61;100.00;101975.63;10239117;28;20123;-73
2023/04/20 18:57:32;;;;;;;18.17;12.45;;;;;;;8.58;100.00;101984.31;10222436;28;20043;-74
2023/04/20 19:02:36;;;;;;;19.15;11.93;;;;;;;8.48;100.00;101978.41;10237930;28;20039;-74
2023/04/20 19:07:36;;;;;;;18.80;12.73;;;;;;;8.59;100.00;102009.84;10286934;28;20047;-73
2023/04/20 19:12:37;;;;;;;16.00;11.38;;;;;;;8.56;100.00;101997.41;10229004;28;20034;-72
2023/04/20 19:17:37;;;;;;;17.42;12.68;;;;;;;8.58;100.00;101988.94;10261191;28;20042;-74
2023/04/20 19:22:38;;;;;;;20.15;13.05;;;;;;;8.49;100.00;101991.06;10228655;28;20479;-73
2023/04/20 19:27:39;;;;;;;20.17;13.75;;;;;;;8.48;100.00;101983.91;10244548;28;20045;-73
2023/04/20 19:32:40;;;;;;;17.83;12.52;;;;;;;8.37;100.00;101970.78;10204851;28;20058;-73
2023/04/20 19:37:40;;;;;;;20.05;13.30;;;;;;;8.47;100.00;101990.44;10233914;28;20124;-73
2023/04/20 19:42:41;;;;;;;21.92;13.80;;;;;;;8.43;100.00;101975.44;10237340;28;20046;-73
2023/04/20 19:47:41;;;;;;;18.63;13.00;;;;;;;8.36;100.00;101939.75;10232866;28;20039;-73
2023/04/20 19:52:42;;;;;;;19.58;13.13;;;;;;;8.38;100.00;101936.81;10231336;28;20058;-73
2023/04/20 19:57:42;;;;;;;20.38;14.57;;;;;;;8.40;100.00;101942.94;10224421;28;20039;-72
2023/04/20 20:02:43;;;;;;;20.60;13.95;;;;;;;8.33;100.00;101939.34;10222621;28;20054;-74
2023/04/20 20:07:44;;;;;;;25.48;14.80;;;;;;;8.46;100.00;101936.63;10254031;28;20043;-74
2023/04/20 20:12:45;;;;;;;24.25;15.20;;;;;;;8.40;100.00;101937.44;10229528;28;20032;-74
2023/04/20 20:17:46;;;;;;;22.90;15.70;;;;;;;8.34;100.00;101914.44;10246770;28;20090;-75
2023/04/20 20:22:49;;;;;;;20.17;14.57;;;;;;;8.05;100.00;101880.09;10232994;28;20039;-74
2023/04/20 20:27:49;;;;;;;26.75;18.10;;;;;;;8.40;100.00;101948.41;10261581;28;20386;-74
2023/04/20 20:32:50;;;;;;;25.17;16.65;;;;;;;8.50;100.00;101959.00;10203005;28;20095;-73
2023/04/20 20:37:53;;;;;;;24.20;16.00;;;;;;;8.43;100.00;101942.53;10228736;28;20035;-74
2023/04/20 20:42:53;;;;;;;26.98;18.10;;;;;;;8.50;100.00;101954.34;10235720;28;20030;-74
2023/04/20 20:47:54;;;;;;;33.35;18.52;;;;;;;8.33;100.00;101942.94;10257596;28;20043;-73
2023/04/20 20:52:55;;;;;;;25.08;17.48;;;;;;;8.40;100.00;101949.25;10241775;28;20031;-73
2023/04/20 20:57:55;;;;;;;28.15;18.27;;;;;;;8.37;100.00;101965.28;10254396;28;20134;-74
2023/04/20 21:02:56;;;;;;;32.65;18.40;;;;;;;8.33;100.00;101958.53;10225457;28;20035;-74
2023/04/20 21:07:56;;;;;;;32.88;18.80;;;;;;;8.14;100.00;101943.78;10240603;28;20078;-74
2023/04/20 21:12:57;;;;;;;30.00;19.40;;;;;;;7.98;100.00;101928.59;10238922;28;20061;-73
2023/04/20 21:17:57;;;;;;;34.03;20.05;;;;;;;8.08;100.00;101940.84;10240639;28;20041;-73
2023/04/20 21:22:58;;;;;;;31.25;19.42;;;;;;;8.01;100.00;101933.69;10224100;28;20054;-74
2023/04/20 21:27:58;;;;;;;33.38;19.85;;;;;;;8.00;100.00;101934.72;10247154;28;20093;-74
2023/04/20 21:32:59;;;;;;;34.20;22.00;;;;;;;7.99;100.00;101939.38;10210219;28;20043;-74
2023/04/20 21:38:00;;;;;;;36.38;22.23;;;;;;;8.07;100.00;101960.25;10220783;28;20047;-74
2023/04/20 21:43:00;;;;;;;40.75;22.83;;;;;;;8.16;100.00;101958.97;10245109;28;20148;-74
2023/04/20 21:48:01;;;;;;;35.63;23.48;;;;;;;8.15;100.00;101940.84;10230918;28;20116;-74
2023/04/20 21:53:02;;;;;;;35.38;22.95;;;;;;;7.98;100.00;101917.63;10223773;28;20077;-73
2023/04/20 21:58:03;;;;;;;35.53;21.40;;;;;;;7.88;100.00;101924.41;10249570;28;20074;-74
2023/04/20 22:03:03;;;;;;;35.90;23.23;;;;;;;7.60;100.00;101907.28;10255545;28;20046;-73
2023/04/20 22:08:04;;;;;;;37.30;23.08;;;;;;;7.48;100.00;101916.16;10223685;28;20145;-74
2023/04/20 22:13:05;;;;;;;37.13;23.50;;;;;;;7.44;100.00;101916.75;10240489;28;20066;-73
2023/04/20 22:18:08;;;;;;;38.90;23.60;;;;;;;7.33;100.00;101910.00;10215468;28;20086;-74
2023/04/20 22:23:09;;;;;;;40.85;24.92;;;;;;;7.37;100.00;101894.81;10222347;28;20050;-73
2023/04/20 22:28:09;;;;;;;42.35;25.20;;;;;;;7.33;100.00;101893.56;10226732;28;20046;-73
2023/04/20 22:33:10;;;;;;;40.60;24.10;;;;;;;7.32;100.00;101877.31;10242868;28;20046;-73
2023/04/20 22:38:10;;;;;;;39.20;24.13;;;;;;;7.20;100.00;101866.97;10264137;28;20047;-70
2023/04/20 22:43:11;;;;;;;40.67;23.17;;;;;;;7.22;100.00;101866.78;10286277;28;20053;-74
2023/04/20 22:48:12;;;;;;;39.78;23.42;;;;;;;7.24;100.00;101875.63;10245449;28;20031;-73
2023/04/20 22:53:12;;;;;;;34.35;22.20;;;;;;;7.11;100.00;101848.22;10262421;28;20042;-73